Skip Navigation Links
NOAA logo - Click to go to the NOAA homepage
NOAA's National Weather Service
Alaska Aviation Weather Unit
  NWS logo - Click to go to the NWS homepage
Left Navbar Graphic     23 AKDT = 07 GMT

   
NOAA is celebrating 200 years of science, service, and stewardship. Visit the NOAA 200th celebration Web site to learn more.
USA.gov is the U.S. Government's official Web portal to all Federal, state and local government Web resources and services.
Facebook
NWS on Facebook

Important Change Regarding the AAWU Web Presence

 

Over the last several months, the AAWU has been working to navigate its webpages to a nationally supported server. Security, as well as other needs, have necessitated the change.  In the process, we have made an effort to enhance the functionality of our website, as well as some of our products. As of June 20, 2017, aawu.arh.noaa.gov will be discontinued. The new AAWU web address is weather.gov/aawu. It is now live and will run in-parallel with the old site until it is discontinued. Please send any feedback or questions regarding the new webpages to nws.ar.aawu.webauthors@noaa.gov.  Thank you for your patience during this time of transition.
AAWU Home :: Display TAF Add Bookmark
METAR PATG 240156Z AUTO 13019KT 10SM -RA OVC008 06/06 A2986 RMK AO2 CIG
     005V010 SLP205 P0005 T00610056=

METAR PATG 240256Z AUTO 13018KT 10SM -RA OVC006 06/06 A2983 RMK AO2
     SLP195 P0008 60016 T00610056 58027=

METAR PATG 240356Z AUTO 16020KT 5SM -RA BR OVC006 06/06 A2981 RMK AO2
     SLP189 P0009 T00610056=

METAR PATG 240456Z AUTO 17019KT 5SM -RA BR OVC006 06/06 A2979 RMK
 AO2 SLP184 P0006 T00610056=

METAR PATG 240556Z AUTO 16018KT 10SM -RA OVC006 06/06 A2978 RMK AO2
     SLP178 P0005 60036 T00560056 10067 20056 56016=


NOAA's National Weather Service
Alaska Aviation Weather Unit
6930 Sand Lake Road
Anchorage, AK 99502-1845
Disclaimer
Credits
Glossary
Privacy Policy
About Us
Career Opportunities
Contact AAWU Internet Services Site last modified: April, 17th 2012